sensor_id;sensor_type;location;lat;lon;timestamp;P1;durP1;ratioP1;P2;durP2;ratioP2
45762;SDS011;37512;52.408;13.356;2022-10-16T00:03:49;4.50;;;2.20;;
45762;SDS011;37512;52.408;13.356;2022-10-16T00:07:51;2.85;;;2.20;;
45762;SDS011;37512;52.408;13.356;2022-10-16T00:11:53;2.67;;;2.00;;
45762;SDS011;37512;52.408;13.356;2022-10-16T00:15:59;2.75;;;1.98;;
45762;SDS011;37512;52.408;13.356;2022-10-16T00:20:02;2.90;;;2.15;;
45762;SDS011;37512;52.408;13.356;2022-10-16T00:24:05;2.70;;;1.85;;
45762;SDS011;37512;52.408;13.356;2022-10-16T00:28:09;2.45;;;1.85;;
45762;SDS011;37512;52.408;13.356;2022-10-16T00:32:10;3.05;;;2.28;;
45762;SDS011;37512;52.408;13.356;2022-10-16T00:36:14;4.53;;;2.30;;
45762;SDS011;37512;52.408;13.356;2022-10-16T00:40:18;4.70;;;2.70;;
45762;SDS011;37512;52.408;13.356;2022-10-16T00:48:46;2.80;;;1.58;;
45762;SDS011;37512;52.408;13.356;2022-10-16T00:52:53;2.75;;;1.98;;
45762;SDS011;37512;52.408;13.356;2022-10-16T00:56:56;2.97;;;2.00;;
45762;SDS011;37512;52.408;13.356;2022-10-16T01:01:01;3.95;;;1.75;;
45762;SDS011;37512;52.408;13.356;2022-10-16T01:05:02;2.55;;;1.95;;
45762;SDS011;37512;52.408;13.356;2022-10-16T01:09:16;3.67;;;2.42;;
45762;SDS011;37512;52.408;13.356;2022-10-16T01:13:22;2.42;;;1.80;;
45762;SDS011;37512;52.408;13.356;2022-10-16T01:17:32;3.72;;;2.28;;
45762;SDS011;37512;52.408;13.356;2022-10-16T01:21:41;4.28;;;2.03;;
45762;SDS011;37512;52.408;13.356;2022-10-16T01:30:10;2.53;;;1.90;;
45762;SDS011;37512;52.408;13.356;2022-10-16T01:34:19;2.10;;;1.50;;
45762;SDS011;37512;52.408;13.356;2022-10-16T01:38:30;2.65;;;1.70;;
45762;SDS011;37512;52.408;13.356;2022-10-16T01:42:39;3.05;;;1.58;;
45762;SDS011;37512;52.408;13.356;2022-10-16T01:46:44;1.92;;;1.40;;
45762;SDS011;37512;52.408;13.356;2022-10-16T01:50:52;2.22;;;1.67;;
45762;SDS011;37512;52.408;13.356;2022-10-16T01:54:58;3.27;;;2.00;;
45762;SDS011;37512;52.408;13.356;2022-10-16T01:59:03;4.82;;;1.85;;
45762;SDS011;37512;52.408;13.356;2022-10-16T02:03:08;3.47;;;1.80;;
45762;SDS011;37512;52.408;13.356;2022-10-16T02:07:12;3.47;;;2.10;;
45762;SDS011;37512;52.408;13.356;2022-10-16T02:11:13;2.65;;;1.73;;
45762;SDS011;37512;52.408;13.356;2022-10-16T02:15:15;2.60;;;1.95;;
45762;SDS011;37512;52.408;13.356;2022-10-16T02:19:17;2.47;;;1.95;;
45762;SDS011;37512;52.408;13.356;2022-10-16T02:23:42;5.28;;;2.30;;
45762;SDS011;37512;52.408;13.356;2022-10-16T02:31:58;4.35;;;1.60;;
45762;SDS011;37512;52.408;13.356;2022-10-16T02:36:03;2.08;;;1.40;;
45762;SDS011;37512;52.408;13.356;2022-10-16T02:40:05;4.20;;;1.55;;
45762;SDS011;37512;52.408;13.356;2022-10-16T02:44:08;2.17;;;1.42;;
45762;SDS011;37512;52.408;13.356;2022-10-16T02:48:09;3.28;;;1.52;;
45762;SDS011;37512;52.408;13.356;2022-10-16T02:52:11;2.97;;;1.67;;
45762;SDS011;37512;52.408;13.356;2022-10-16T02:56:12;3.25;;;1.73;;
45762;SDS011;37512;52.408;13.356;2022-10-16T03:00:15;3.15;;;1.45;;
45762;SDS011;37512;52.408;13.356;2022-10-16T03:04:17;6.07;;;1.70;;
45762;SDS011;37512;52.408;13.356;2022-10-16T03:08:19;4.72;;;1.80;;
45762;SDS011;37512;52.408;13.356;2022-10-16T03:12:24;2.50;;;1.90;;
45762;SDS011;37512;52.408;13.356;2022-10-16T03:16:25;2.20;;;1.60;;
45762;SDS011;37512;52.408;13.356;2022-10-16T03:20:27;2.20;;;1.63;;
45762;SDS011;37512;52.408;13.356;2022-10-16T03:24:28;3.03;;;1.38;;
45762;SDS011;37512;52.408;13.356;2022-10-16T03:28:30;2.00;;;1.58;;
45762;SDS011;37512;52.408;13.356;2022-10-16T03:32:31;3.35;;;1.65;;
45762;SDS011;37512;52.408;13.356;2022-10-16T03:36:33;4.38;;;1.80;;
45762;SDS011;37512;52.408;13.356;2022-10-16T03:40:34;2.42;;;1.55;;
45762;SDS011;37512;52.408;13.356;2022-10-16T03:44:36;5.22;;;1.60;;
45762;SDS011;37512;52.408;13.356;2022-10-16T03:48:37;4.65;;;2.20;;
45762;SDS011;37512;52.408;13.356;2022-10-16T03:52:38;2.60;;;1.65;;
45762;SDS011;37512;52.408;13.356;2022-10-16T03:56:40;4.25;;;2.10;;
45762;SDS011;37512;52.408;13.356;2022-10-16T04:00:42;2.42;;;1.85;;
45762;SDS011;37512;52.408;13.356;2022-10-16T04:04:44;3.22;;;2.00;;
45762;SDS011;37512;52.408;13.356;2022-10-16T04:08:45;3.13;;;1.83;;
45762;SDS011;37512;52.408;13.356;2022-10-16T04:12:47;3.33;;;2.00;;
45762;SDS011;37512;52.408;13.356;2022-10-16T04:16:48;3.53;;;2.20;;
45762;SDS011;37512;52.408;13.356;2022-10-16T04:20:49;2.20;;;1.90;;
45762;SDS011;37512;52.408;13.356;2022-10-16T04:24:51;2.33;;;1.90;;
45762;SDS011;37512;52.408;13.356;2022-10-16T04:28:52;2.47;;;2.10;;
45762;SDS011;37512;52.408;13.356;2022-10-16T04:32:55;1.92;;;1.70;;
45762;SDS011;37512;52.408;13.356;2022-10-16T04:36:56;3.58;;;2.10;;
45762;SDS011;37512;52.408;13.356;2022-10-16T04:40:57;3.03;;;2.10;;
45762;SDS011;37512;52.408;13.356;2022-10-16T04:44:59;3.55;;;2.40;;
45762;SDS011;37512;52.408;13.356;2022-10-16T04:49:00;2.92;;;2.03;;
45762;SDS011;37512;52.408;13.356;2022-10-16T04:53:02;2.65;;;2.17;;
45762;SDS011;37512;52.408;13.356;2022-10-16T04:57:03;3.90;;;2.28;;
45762;SDS011;37512;52.408;13.356;2022-10-16T05:01:06;6.90;;;2.28;;
45762;SDS011;37512;52.408;13.356;2022-10-16T05:05:07;2.92;;;2.33;;
45762;SDS011;37512;52.408;13.356;2022-10-16T05:09:09;4.55;;;2.03;;
45762;SDS011;37512;52.408;13.356;2022-10-16T05:13:11;4.00;;;2.10;;
45762;SDS011;37512;52.408;13.356;2022-10-16T05:17:13;2.72;;;2.30;;
45762;SDS011;37512;52.408;13.356;2022-10-16T05:21:14;2.58;;;2.10;;
45762;SDS011;37512;52.408;13.356;2022-10-16T05:25:15;4.57;;;2.45;;
45762;SDS011;37512;52.408;13.356;2022-10-16T05:29:17;2.70;;;2.00;;
45762;SDS011;37512;52.408;13.356;2022-10-16T05:33:22;3.13;;;2.22;;
45762;SDS011;37512;52.408;13.356;2022-10-16T05:37:27;2.72;;;2.30;;
45762;SDS011;37512;52.408;13.356;2022-10-16T05:41:29;2.92;;;2.60;;
45762;SDS011;37512;52.408;13.356;2022-10-16T05:45:30;2.88;;;2.13;;
45762;SDS011;37512;52.408;13.356;2022-10-16T05:49:32;3.10;;;2.13;;
45762;SDS011;37512;52.408;13.356;2022-10-16T05:53:38;5.63;;;2.80;;
45762;SDS011;37512;52.408;13.356;2022-10-16T05:57:40;3.08;;;2.45;;
45762;SDS011;37512;52.408;13.356;2022-10-16T06:01:42;3.95;;;2.38;;
45762;SDS011;37512;52.408;13.356;2022-10-16T06:05:43;2.60;;;2.08;;
45762;SDS011;37512;52.408;13.356;2022-10-16T06:09:47;4.43;;;2.33;;
45762;SDS011;37512;52.408;13.356;2022-10-16T06:13:51;3.58;;;2.05;;
45762;SDS011;37512;52.408;13.356;2022-10-16T06:17:53;2.53;;;2.08;;
45762;SDS011;37512;52.408;13.356;2022-10-16T06:21:54;2.63;;;2.00;;
45762;SDS011;37512;52.408;13.356;2022-10-16T06:26:03;4.07;;;1.90;;
45762;SDS011;37512;52.408;13.356;2022-10-16T06:30:06;3.28;;;1.85;;
45762;SDS011;37512;52.408;13.356;2022-10-16T06:34:09;3.20;;;2.10;;
45762;SDS011;37512;52.408;13.356;2022-10-16T06:38:11;4.90;;;3.53;;
45762;SDS011;37512;52.408;13.356;2022-10-16T06:42:13;5.40;;;3.55;;
45762;SDS011;37512;52.408;13.356;2022-10-16T06:46:15;3.03;;;2.47;;
45762;SDS011;37512;52.408;13.356;2022-10-16T06:50:19;5.88;;;2.08;;
45762;SDS011;37512;52.408;13.356;2022-10-16T06:54:20;2.28;;;1.85;;
45762;SDS011;37512;52.408;13.356;2022-10-16T06:58:22;2.20;;;1.63;;
45762;SDS011;37512;52.408;13.356;2022-10-16T07:02:24;2.95;;;1.70;;
45762;SDS011;37512;52.408;13.356;2022-10-16T07:06:26;2.72;;;1.70;;
45762;SDS011;37512;52.408;13.356;2022-10-16T07:10:31;3.92;;;1.95;;
45762;SDS011;37512;52.408;13.356;2022-10-16T07:14:33;2.30;;;1.70;;
45762;SDS011;37512;52.408;13.356;2022-10-16T07:18:35;2.28;;;1.70;;
45762;SDS011;37512;52.408;13.356;2022-10-16T07:22:37;2.85;;;1.77;;
45762;SDS011;37512;52.408;13.356;2022-10-16T07:26:39;3.30;;;1.48;;
45762;SDS011;37512;52.408;13.356;2022-10-16T07:30:41;1.38;;;1.25;;
45762;SDS011;37512;52.408;13.356;2022-10-16T07:34:42;2.55;;;1.30;;
45762;SDS011;37512;52.408;13.356;2022-10-16T07:38:44;1.80;;;1.35;;
45762;SDS011;37512;52.408;13.356;2022-10-16T07:42:46;1.88;;;1.50;;
45762;SDS011;37512;52.408;13.356;2022-10-16T07:46:48;2.45;;;1.70;;
45762;SDS011;37512;52.408;13.356;2022-10-16T07:50:49;3.35;;;1.30;;
45762;SDS011;37512;52.408;13.356;2022-10-16T07:54:51;4.10;;;1.30;;
45762;SDS011;37512;52.408;13.356;2022-10-16T07:58:52;2.88;;;1.45;;
45762;SDS011;37512;52.408;13.356;2022-10-16T08:02:54;2.22;;;1.30;;
45762;SDS011;37512;52.408;13.356;2022-10-16T08:06:55;1.63;;;1.40;;
45762;SDS011;37512;52.408;13.356;2022-10-16T08:10:57;1.63;;;1.30;;
45762;SDS011;37512;52.408;13.356;2022-10-16T08:14:58;1.40;;;1.15;;
45762;SDS011;37512;52.408;13.356;2022-10-16T08:19:00;1.27;;;1.00;;
45762;SDS011;37512;52.408;13.356;2022-10-16T08:23:01;3.53;;;1.48;;
45762;SDS011;37512;52.408;13.356;2022-10-16T08:27:03;1.80;;;1.20;;
45762;SDS011;37512;52.408;13.356;2022-10-16T08:31:11;2.30;;;1.13;;
45762;SDS011;37512;52.408;13.356;2022-10-16T08:35:15;1.42;;;1.00;;
45762;SDS011;37512;52.408;13.356;2022-10-16T08:39:17;1.60;;;0.88;;
45762;SDS011;37512;52.408;13.356;2022-10-16T08:47:39;3.08;;;1.13;;
45762;SDS011;37512;52.408;13.356;2022-10-16T08:51:49;1.65;;;0.90;;
45762;SDS011;37512;52.408;13.356;2022-10-16T08:55:52;1.17;;;0.85;;
45762;SDS011;37512;52.408;13.356;2022-10-16T08:59:55;1.65;;;1.25;;
45762;SDS011;37512;52.408;13.356;2022-10-16T09:16:51;1.55;;;0.98;;
45762;SDS011;37512;52.408;13.356;2022-10-16T09:25:20;1.33;;;1.08;;
45762;SDS011;37512;52.408;13.356;2022-10-16T09:29:22;2.17;;;0.88;;
45762;SDS011;37512;52.408;13.356;2022-10-16T09:33:32;1.35;;;0.93;;
45762;SDS011;37512;52.408;13.356;2022-10-16T09:37:36;1.98;;;1.00;;
45762;SDS011;37512;52.408;13.356;2022-10-16T09:41:41;1.77;;;1.00;;
45762;SDS011;37512;52.408;13.356;2022-10-16T09:45:55;1.85;;;1.20;;
45762;SDS011;37512;52.408;13.356;2022-10-16T09:49:58;2.70;;;1.00;;
45762;SDS011;37512;52.408;13.356;2022-10-16T09:58:11;1.63;;;1.20;;
45762;SDS011;37512;52.408;13.356;2022-10-16T10:02:15;1.25;;;0.98;;
45762;SDS011;37512;52.408;13.356;2022-10-16T10:06:21;1.17;;;0.80;;
45762;SDS011;37512;52.408;13.356;2022-10-16T10:10:29;1.63;;;1.00;;
45762;SDS011;37512;52.408;13.356;2022-10-16T10:14:39;1.05;;;0.80;;
45762;SDS011;37512;52.408;13.356;2022-10-16T10:18:46;1.02;;;0.80;;
45762;SDS011;37512;52.408;13.356;2022-10-16T10:22:47;1.10;;;0.75;;
45762;SDS011;37512;52.408;13.356;2022-10-16T10:31:29;1.40;;;1.10;;
45762;SDS011;37512;52.408;13.356;2022-10-16T10:35:44;1.17;;;0.88;;
45762;SDS011;37512;52.408;13.356;2022-10-16T10:40:08;1.50;;;1.00;;
45762;SDS011;37512;52.408;13.356;2022-10-16T10:44:27;2.58;;;1.00;;
45762;SDS011;37512;52.408;13.356;2022-10-16T10:57:29;1.20;;;0.80;;
45762;SDS011;37512;52.408;13.356;2022-10-16T11:01:39;0.90;;;0.80;;
45762;SDS011;37512;52.408;13.356;2022-10-16T11:05:59;2.15;;;1.20;;
45762;SDS011;37512;52.408;13.356;2022-10-16T11:10:16;1.83;;;0.70;;
45762;SDS011;37512;52.408;13.356;2022-10-16T11:14:26;1.50;;;0.95;;
45762;SDS011;37512;52.408;13.356;2022-10-16T11:18:38;3.50;;;1.00;;
45762;SDS011;37512;52.408;13.356;2022-10-16T11:26:57;1.02;;;0.80;;
45762;SDS011;37512;52.408;13.356;2022-10-16T11:31:08;1.38;;;0.70;;
45762;SDS011;37512;52.408;13.356;2022-10-16T11:35:15;0.85;;;0.60;;
45762;SDS011;37512;52.408;13.356;2022-10-16T11:39:26;2.30;;;0.93;;
45762;SDS011;37512;52.408;13.356;2022-10-16T11:43:37;0.50;;;0.50;;
45762;SDS011;37512;52.408;13.356;2022-10-16T11:47:51;1.80;;;0.60;;
45762;SDS011;37512;52.408;13.356;2022-10-16T11:52:07;0.70;;;0.60;;
45762;SDS011;37512;52.408;13.356;2022-10-16T11:56:24;2.00;;;0.90;;
45762;SDS011;37512;52.408;13.356;2022-10-16T12:08:51;0.98;;;0.70;;
45762;SDS011;37512;52.408;13.356;2022-10-16T12:12:54;8.13;;;2.83;;
45762;SDS011;37512;52.408;13.356;2022-10-16T12:16:58;2.75;;;0.60;;
45762;SDS011;37512;52.408;13.356;2022-10-16T12:21:01;1.13;;;0.55;;
45762;SDS011;37512;52.408;13.356;2022-10-16T12:25:19;1.38;;;0.60;;
45762;SDS011;37512;52.408;13.356;2022-10-16T12:33:40;3.08;;;0.80;;
45762;SDS011;37512;52.408;13.356;2022-10-16T12:37:43;3.58;;;0.93;;
45762;SDS011;37512;52.408;13.356;2022-10-16T12:41:45;0.98;;;0.60;;
45762;SDS011;37512;52.408;13.356;2022-10-16T12:45:58;3.70;;;0.82;;
45762;SDS011;37512;52.408;13.356;2022-10-16T12:50:00;1.33;;;0.80;;
45762;SDS011;37512;52.408;13.356;2022-10-16T12:54:16;0.55;;;0.50;;
45762;SDS011;37512;52.408;13.356;2022-10-16T12:58:26;3.47;;;0.60;;
45762;SDS011;37512;52.408;13.356;2022-10-16T13:24:40;0.70;;;0.60;;
45762;SDS011;37512;52.408;13.356;2022-10-16T13:28:50;2.05;;;0.75;;
45762;SDS011;37512;52.408;13.356;2022-10-16T13:41:17;0.90;;;0.73;;
45762;SDS011;37512;52.408;13.356;2022-10-16T13:45:21;0.60;;;0.60;;
45762;SDS011;37512;52.408;13.356;2022-10-16T13:49:28;1.85;;;0.70;;
45762;SDS011;37512;52.408;13.356;2022-10-16T13:53:30;3.95;;;0.70;;
45762;SDS011;37512;52.408;13.356;2022-10-16T13:57:35;0.50;;;0.50;;
45762;SDS011;37512;52.408;13.356;2022-10-16T14:05:47;0.70;;;0.60;;
45762;SDS011;37512;52.408;13.356;2022-10-16T14:09:52;1.60;;;0.90;;
45762;SDS011;37512;52.408;13.356;2022-10-16T14:13:54;2.53;;;0.90;;
45762;SDS011;37512;52.408;13.356;2022-10-16T14:17:56;1.25;;;0.73;;
45762;SDS011;37512;52.408;13.356;2022-10-16T14:21:59;0.70;;;0.50;;
45762;SDS011;37512;52.408;13.356;2022-10-16T14:30:14;0.60;;;0.60;;
45762;SDS011;37512;52.408;13.356;2022-10-16T14:34:33;1.50;;;0.73;;
45762;SDS011;37512;52.408;13.356;2022-10-16T14:38:37;1.77;;;0.70;;
45762;SDS011;37512;52.408;13.356;2022-10-16T14:42:42;2.58;;;1.10;;
45762;SDS011;37512;52.408;13.356;2022-10-16T14:46:45;1.15;;;0.60;;
45762;SDS011;37512;52.408;13.356;2022-10-16T14:50:48;3.10;;;0.90;;
45762;SDS011;37512;52.408;13.356;2022-10-16T14:54:49;0.65;;;0.50;;
45762;SDS011;37512;52.408;13.356;2022-10-16T14:58:51;2.58;;;0.60;;
45762;SDS011;37512;52.408;13.356;2022-10-16T15:02:54;1.50;;;0.98;;
45762;SDS011;37512;52.408;13.356;2022-10-16T15:06:55;1.33;;;0.85;;
45762;SDS011;37512;52.408;13.356;2022-10-16T15:10:57;1.23;;;0.75;;
45762;SDS011;37512;52.408;13.356;2022-10-16T15:14:58;1.38;;;0.63;;
45762;SDS011;37512;52.408;13.356;2022-10-16T15:19:00;1.30;;;0.70;;
45762;SDS011;37512;52.408;13.356;2022-10-16T15:23:05;1.60;;;1.02;;
45762;SDS011;37512;52.408;13.356;2022-10-16T15:27:13;2.20;;;0.90;;
45762;SDS011;37512;52.408;13.356;2022-10-16T15:31:15;1.00;;;0.68;;
45762;SDS011;37512;52.408;13.356;2022-10-16T15:35:16;1.50;;;1.00;;
45762;SDS011;37512;52.408;13.356;2022-10-16T15:39:19;1.38;;;1.00;;
45762;SDS011;37512;52.408;13.356;2022-10-16T15:43:21;2.08;;;0.80;;
45762;SDS011;37512;52.408;13.356;2022-10-16T15:47:22;4.68;;;0.98;;
45762;SDS011;37512;52.408;13.356;2022-10-16T15:51:25;2.08;;;1.10;;
45762;SDS011;37512;52.408;13.356;2022-10-16T15:55:30;2.60;;;1.45;;
45762;SDS011;37512;52.408;13.356;2022-10-16T15:59:31;3.08;;;1.42;;
45762;SDS011;37512;52.408;13.356;2022-10-16T16:03:32;1.40;;;1.00;;
45762;SDS011;37512;52.408;13.356;2022-10-16T16:07:37;3.42;;;1.23;;
45762;SDS011;37512;52.408;13.356;2022-10-16T16:11:40;2.13;;;1.73;;
45762;SDS011;37512;52.408;13.356;2022-10-16T16:15:42;3.10;;;2.17;;
45762;SDS011;37512;52.408;13.356;2022-10-16T16:19:43;11.40;;;5.78;;
45762;SDS011;37512;52.408;13.356;2022-10-16T16:23:47;5.82;;;3.88;;
45762;SDS011;37512;52.408;13.356;2022-10-16T16:27:48;4.18;;;3.08;;
45762;SDS011;37512;52.408;13.356;2022-10-16T16:31:49;5.00;;;3.00;;
45762;SDS011;37512;52.408;13.356;2022-10-16T16:35:55;5.30;;;3.22;;
45762;SDS011;37512;52.408;13.356;2022-10-16T16:39:57;6.60;;;3.20;;
45762;SDS011;37512;52.408;13.356;2022-10-16T16:44:05;6.00;;;4.22;;
45762;SDS011;37512;52.408;13.356;2022-10-16T16:48:09;4.20;;;3.15;;
45762;SDS011;37512;52.408;13.356;2022-10-16T16:52:11;6.97;;;4.18;;
45762;SDS011;37512;52.408;13.356;2022-10-16T16:56:12;5.13;;;3.17;;
45762;SDS011;37512;52.408;13.356;2022-10-16T17:00:14;4.65;;;2.50;;
45762;SDS011;37512;52.408;13.356;2022-10-16T17:04:16;4.28;;;2.97;;
45762;SDS011;37512;52.408;13.356;2022-10-16T17:08:17;3.38;;;2.50;;
45762;SDS011;37512;52.408;13.356;2022-10-16T17:12:19;3.67;;;2.30;;
45762;SDS011;37512;52.408;13.356;2022-10-16T17:16:24;4.43;;;2.70;;
45762;SDS011;37512;52.408;13.356;2022-10-16T17:20:28;6.68;;;2.83;;
45762;SDS011;37512;52.408;13.356;2022-10-16T17:24:29;4.13;;;3.28;;
45762;SDS011;37512;52.408;13.356;2022-10-16T17:28:31;5.57;;;4.05;;
45762;SDS011;37512;52.408;13.356;2022-10-16T17:32:32;5.30;;;3.83;;
45762;SDS011;37512;52.408;13.356;2022-10-16T17:36:35;8.88;;;5.72;;
45762;SDS011;37512;52.408;13.356;2022-10-16T17:40:38;5.55;;;4.68;;
45762;SDS011;37512;52.408;13.356;2022-10-16T17:44:40;5.40;;;4.43;;
45762;SDS011;37512;52.408;13.356;2022-10-16T17:48:43;7.50;;;4.88;;
45762;SDS011;37512;52.408;13.356;2022-10-16T17:52:45;5.90;;;4.40;;
45762;SDS011;37512;52.408;13.356;2022-10-16T17:56:47;4.97;;;3.60;;
45762;SDS011;37512;52.408;13.356;2022-10-16T18:00:49;7.95;;;4.32;;
45762;SDS011;37512;52.408;13.356;2022-10-16T18:04:50;4.55;;;3.38;;
45762;SDS011;37512;52.408;13.356;2022-10-16T18:08:52;6.45;;;3.97;;
45762;SDS011;37512;52.408;13.356;2022-10-16T18:12:56;9.52;;;3.67;;
45762;SDS011;37512;52.408;13.356;2022-10-16T18:16:58;6.93;;;4.65;;
45762;SDS011;37512;52.408;13.356;2022-10-16T18:21:00;5.80;;;3.70;;
45762;SDS011;37512;52.408;13.356;2022-10-16T18:25:04;5.32;;;4.10;;
45762;SDS011;37512;52.408;13.356;2022-10-16T18:29:06;6.03;;;3.28;;
45762;SDS011;37512;52.408;13.356;2022-10-16T18:33:08;7.22;;;4.13;;
45762;SDS011;37512;52.408;13.356;2022-10-16T18:37:09;6.22;;;3.40;;
45762;SDS011;37512;52.408;13.356;2022-10-16T18:41:12;3.90;;;2.60;;
45762;SDS011;37512;52.408;13.356;2022-10-16T18:45:14;4.75;;;3.28;;
45762;SDS011;37512;52.408;13.356;2022-10-16T18:49:16;4.90;;;3.30;;
45762;SDS011;37512;52.408;13.356;2022-10-16T18:53:18;4.97;;;3.38;;
45762;SDS011;37512;52.408;13.356;2022-10-16T18:57:20;4.95;;;3.58;;
45762;SDS011;37512;52.408;13.356;2022-10-16T19:01:22;5.30;;;3.17;;
45762;SDS011;37512;52.408;13.356;2022-10-16T19:05:25;6.72;;;4.10;;
45762;SDS011;37512;52.408;13.356;2022-10-16T19:09:26;4.55;;;3.90;;
45762;SDS011;37512;52.408;13.356;2022-10-16T19:13:28;6.60;;;4.40;;
45762;SDS011;37512;52.408;13.356;2022-10-16T19:17:30;6.00;;;4.35;;
45762;SDS011;37512;52.408;13.356;2022-10-16T19:21:33;8.43;;;4.85;;
45762;SDS011;37512;52.408;13.356;2022-10-16T19:25:37;7.72;;;5.63;;
45762;SDS011;37512;52.408;13.356;2022-10-16T19:29:40;7.55;;;5.13;;
45762;SDS011;37512;52.408;13.356;2022-10-16T19:33:41;12.05;;;6.60;;
45762;SDS011;37512;52.408;13.356;2022-10-16T19:37:43;6.97;;;4.78;;
45762;SDS011;37512;52.408;13.356;2022-10-16T19:41:45;7.00;;;5.03;;
45762;SDS011;37512;52.408;13.356;2022-10-16T19:45:47;6.43;;;4.90;;
45762;SDS011;37512;52.408;13.356;2022-10-16T19:49:49;5.07;;;3.50;;
45762;SDS011;37512;52.408;13.356;2022-10-16T19:53:57;7.15;;;4.53;;
45762;SDS011;37512;52.408;13.356;2022-10-16T19:58:01;7.20;;;5.00;;
45762;SDS011;37512;52.408;13.356;2022-10-16T20:02:02;7.55;;;4.60;;
45762;SDS011;37512;52.408;13.356;2022-10-16T20:06:03;20.20;;;10.52;;
45762;SDS011;37512;52.408;13.356;2022-10-16T20:10:07;23.63;;;13.15;;
45762;SDS011;37512;52.408;13.356;2022-10-16T20:14:08;19.20;;;9.40;;
45762;SDS011;37512;52.408;13.356;2022-10-16T20:18:10;12.95;;;6.85;;
45762;SDS011;37512;52.408;13.356;2022-10-16T20:22:11;12.82;;;6.95;;
45762;SDS011;37512;52.408;13.356;2022-10-16T20:26:13;13.02;;;7.30;;
45762;SDS011;37512;52.408;13.356;2022-10-16T20:30:15;16.35;;;8.30;;
45762;SDS011;37512;52.408;13.356;2022-10-16T20:34:16;14.77;;;7.22;;
45762;SDS011;37512;52.408;13.356;2022-10-16T20:38:18;12.73;;;6.13;;
45762;SDS011;37512;52.408;13.356;2022-10-16T20:42:19;12.32;;;7.20;;
45762;SDS011;37512;52.408;13.356;2022-10-16T20:46:22;12.73;;;6.72;;
45762;SDS011;37512;52.408;13.356;2022-10-16T20:50:28;12.23;;;7.00;;
45762;SDS011;37512;52.408;13.356;2022-10-16T20:54:30;12.77;;;6.35;;
45762;SDS011;37512;52.408;13.356;2022-10-16T20:58:31;8.63;;;5.75;;
45762;SDS011;37512;52.408;13.356;2022-10-16T21:02:33;10.00;;;6.35;;
45762;SDS011;37512;52.408;13.356;2022-10-16T21:06:35;10.77;;;6.28;;
45762;SDS011;37512;52.408;13.356;2022-10-16T21:10:38;9.32;;;6.22;;
45762;SDS011;37512;52.408;13.356;2022-10-16T21:14:39;12.35;;;6.82;;
45762;SDS011;37512;52.408;13.356;2022-10-16T21:18:56;9.23;;;6.03;;
45762;SDS011;37512;52.408;13.356;2022-10-16T21:22:58;8.88;;;6.25;;
45762;SDS011;37512;52.408;13.356;2022-10-16T21:27:02;10.82;;;6.95;;
45762;SDS011;37512;52.408;13.356;2022-10-16T21:31:14;9.73;;;5.90;;
45762;SDS011;37512;52.408;13.356;2022-10-16T21:35:19;9.15;;;5.40;;
45762;SDS011;37512;52.408;13.356;2022-10-16T21:39:20;7.65;;;5.43;;
45762;SDS011;37512;52.408;13.356;2022-10-16T21:43:22;9.20;;;6.35;;
45762;SDS011;37512;52.408;13.356;2022-10-16T21:47:23;9.00;;;5.80;;
45762;SDS011;37512;52.408;13.356;2022-10-16T21:51:29;10.27;;;6.82;;
45762;SDS011;37512;52.408;13.356;2022-10-16T21:55:38;11.90;;;6.93;;
45762;SDS011;37512;52.408;13.356;2022-10-16T21:59:39;12.82;;;7.18;;
45762;SDS011;37512;52.408;13.356;2022-10-16T22:03:41;8.18;;;5.35;;
45762;SDS011;37512;52.408;13.356;2022-10-16T22:07:43;9.02;;;5.97;;
45762;SDS011;37512;52.408;13.356;2022-10-16T22:11:44;8.50;;;5.72;;
45762;SDS011;37512;52.408;13.356;2022-10-16T22:15:49;7.97;;;5.40;;
45762;SDS011;37512;52.408;13.356;2022-10-16T22:19:53;13.35;;;6.18;;
45762;SDS011;37512;52.408;13.356;2022-10-16T22:23:54;8.95;;;5.93;;
45762;SDS011;37512;52.408;13.356;2022-10-16T22:27:56;7.97;;;5.38;;
45762;SDS011;37512;52.408;13.356;2022-10-16T22:31:57;7.70;;;4.55;;
45762;SDS011;37512;52.408;13.356;2022-10-16T22:35:59;7.30;;;5.60;;
45762;SDS011;37512;52.408;13.356;2022-10-16T22:40:01;6.70;;;4.78;;
45762;SDS011;37512;52.408;13.356;2022-10-16T22:44:03;9.18;;;4.53;;
45762;SDS011;37512;52.408;13.356;2022-10-16T22:48:04;7.80;;;5.53;;
45762;SDS011;37512;52.408;13.356;2022-10-16T22:52:06;7.70;;;4.75;;
45762;SDS011;37512;52.408;13.356;2022-10-16T22:56:08;6.65;;;4.35;;
45762;SDS011;37512;52.408;13.356;2022-10-16T23:00:12;8.02;;;4.80;;
45762;SDS011;37512;52.408;13.356;2022-10-16T23:04:16;7.93;;;5.10;;
45762;SDS011;37512;52.408;13.356;2022-10-16T23:08:18;5.75;;;4.28;;
45762;SDS011;37512;52.408;13.356;2022-10-16T23:12:19;7.43;;;4.57;;
45762;SDS011;37512;52.408;13.356;2022-10-16T23:16:23;6.57;;;4.68;;
45762;SDS011;37512;52.408;13.356;2022-10-16T23:20:25;5.78;;;4.50;;
45762;SDS011;37512;52.408;13.356;2022-10-16T23:24:28;9.65;;;5.20;;
45762;SDS011;37512;52.408;13.356;2022-10-16T23:28:30;9.40;;;5.50;;
45762;SDS011;37512;52.408;13.356;2022-10-16T23:32:32;8.40;;;5.78;;
45762;SDS011;37512;52.408;13.356;2022-10-16T23:36:34;9.18;;;5.82;;
45762;SDS011;37512;52.408;13.356;2022-10-16T23:40:36;10.40;;;6.07;;
45762;SDS011;37512;52.408;13.356;2022-10-16T23:44:37;10.07;;;6.68;;
45762;SDS011;37512;52.408;13.356;2022-10-16T23:48:39;9.00;;;5.85;;
45762;SDS011;37512;52.408;13.356;2022-10-16T23:52:40;12.32;;;5.53;;
45762;SDS011;37512;52.408;13.356;2022-10-16T23:56:41;9.00;;;5.43;;
